createdAt,value
2018-07-19T00:02:21.094Z,50.14
2018-07-19T00:04:49.181Z,50.06
2018-07-19T00:07:17.359Z,50.25
2018-07-19T00:09:45.479Z,50.12
2018-07-19T00:12:13.585Z,50.41
2018-07-19T00:14:41.844Z,50.69
2018-07-19T00:17:10.047Z,51.11
2018-07-19T00:19:38.193Z,51.28
2018-07-19T00:22:06.358Z,51.71
2018-07-19T00:24:34.430Z,51.30
2018-07-19T00:27:02.488Z,51.36
2018-07-19T00:29:30.580Z,51.62
2018-07-19T00:31:58.644Z,51.67
2018-07-19T00:34:26.743Z,51.54
2018-07-19T00:36:54.812Z,51.57
2018-07-19T00:41:50.031Z,52.42
2018-07-19T00:44:18.082Z,52.36
2018-07-19T00:46:46.803Z,52.45
2018-07-19T00:49:15.015Z,53.03
2018-07-19T00:51:43.111Z,52.29
2018-07-19T00:54:11.212Z,53.25
2018-07-19T00:56:39.356Z,52.80
2018-07-19T00:59:07.444Z,53.17
2018-07-19T01:01:35.609Z,53.72
2018-07-19T01:04:03.747Z,54.32
2018-07-19T01:06:31.815Z,54.28
2018-07-19T01:08:59.879Z,53.88
2018-07-19T01:11:27.972Z,53.91
2018-07-19T01:13:56.048Z,53.47
2018-07-19T01:16:24.118Z,53.51
2018-07-19T01:18:52.198Z,53.61
2018-07-19T01:21:20.284Z,53.35
2018-07-19T01:23:48.368Z,53.67
2018-07-19T01:26:16.455Z,54.11
2018-07-19T01:28:44.548Z,54.28
2018-07-19T01:31:12.619Z,53.65
2018-07-19T01:33:40.690Z,54.08
2018-07-19T01:36:08.762Z,55.00
2018-07-19T01:38:36.831Z,57.10
2018-07-19T01:41:17.868Z,58.38
2018-07-19T01:43:46.038Z,58.88
2018-07-19T01:46:14.203Z,59.33
2018-07-19T01:48:42.275Z,60.43
2018-07-19T01:51:10.335Z,60.02
2018-07-19T01:53:38.429Z,61.07
2018-07-19T01:56:06.488Z,61.33
2018-07-19T01:58:34.564Z,61.38
2018-07-19T02:01:02.627Z,62.10
2018-07-19T02:03:30.720Z,62.31
2018-07-19T02:05:58.814Z,62.27
2018-07-19T02:08:26.893Z,63.02
2018-07-19T02:10:54.967Z,60.80
2018-07-19T02:13:23.056Z,61.29
2018-07-19T02:15:51.151Z,61.74
2018-07-19T02:18:19.247Z,61.62
2018-07-19T02:20:47.327Z,61.31
2018-07-19T02:23:15.418Z,59.44
2018-07-19T02:25:43.489Z,62.32
2018-07-19T02:28:11.571Z,62.52
2018-07-19T02:30:39.626Z,63.07
2018-07-19T02:33:07.727Z,63.91
2018-07-19T02:35:35.804Z,63.07
2018-07-19T02:38:03.912Z,64.00
2018-07-19T02:40:32.003Z,64.42
2018-07-19T02:43:00.075Z,64.80
2018-07-19T02:45:28.155Z,64.24
2018-07-19T02:47:56.226Z,62.77
2018-07-19T02:50:24.307Z,60.35
2018-07-19T02:52:52.402Z,59.31
2018-07-19T02:55:20.484Z,58.84
2018-07-19T02:57:48.538Z,58.79
2018-07-19T03:00:16.635Z,59.08
2018-07-19T03:02:44.740Z,58.57
2018-07-19T03:05:12.819Z,58.51
2018-07-19T03:07:40.912Z,58.88
2018-07-19T03:10:08.996Z,58.15
2018-07-19T03:12:37.046Z,58.99
2018-07-19T03:15:05.162Z,58.97
2018-07-19T03:17:33.253Z,58.49
2018-07-19T03:20:01.328Z,59.00
2018-07-19T03:22:29.400Z,58.56
2018-07-19T03:24:57.496Z,58.80
2018-07-19T03:27:25.566Z,59.45
2018-07-19T03:29:53.642Z,60.11
2018-07-19T03:32:21.708Z,59.49
2018-07-19T03:34:49.811Z,59.96
2018-07-19T03:37:17.905Z,60.43
2018-07-19T03:39:46.006Z,59.73
2018-07-19T03:42:14.086Z,59.96
2018-07-19T03:44:42.170Z,60.07
2018-07-19T03:47:10.618Z,59.84
2018-07-19T03:49:38.726Z,59.45
2018-07-19T03:52:06.834Z,59.73
2018-07-19T03:54:35.144Z,59.50
2018-07-19T03:57:03.421Z,60.02
2018-07-19T03:59:31.511Z,60.57
2018-07-19T04:01:59.738Z,59.91
2018-07-19T04:04:27.751Z,59.94
2018-07-19T04:06:55.815Z,60.67
2018-07-19T04:09:23.909Z,60.90
2018-07-19T04:11:52.023Z,60.55
2018-07-19T04:14:20.123Z,60.63
2018-07-19T04:16:48.191Z,60.31
2018-07-19T04:19:16.284Z,60.53
2018-07-19T04:21:44.347Z,60.64
2018-07-19T04:24:12.422Z,59.89
2018-07-19T04:26:40.520Z,60.63
2018-07-19T04:29:08.619Z,60.85
2018-07-19T04:31:36.795Z,60.51
2018-07-19T04:34:05.128Z,59.78
2018-07-19T04:36:33.235Z,60.19
2018-07-19T04:39:01.340Z,60.57
2018-07-19T04:41:29.396Z,60.35
2018-07-19T04:43:57.489Z,59.72
2018-07-19T04:46:25.565Z,60.54
2018-07-19T04:48:53.679Z,60.50
2018-07-19T04:51:21.788Z,59.52
2018-07-19T04:53:49.893Z,60.05
2018-07-19T04:56:17.976Z,59.93
2018-07-19T04:58:46.067Z,59.85
2018-07-19T05:01:14.163Z,58.91
2018-07-19T05:03:42.227Z,58.99
2018-07-19T05:06:10.292Z,59.16
2018-07-19T05:08:38.733Z,59.37
2018-07-19T05:11:06.822Z,59.52
2018-07-19T05:13:34.917Z,59.62
2018-07-19T05:16:03.104Z,59.24
2018-07-19T05:18:31.219Z,59.37
2018-07-19T05:20:59.306Z,58.54
2018-07-19T05:23:27.406Z,58.68
2018-07-19T05:25:55.551Z,58.52
2018-07-19T05:28:23.602Z,58.92
2018-07-19T05:30:51.776Z,58.91
2018-07-19T05:33:19.980Z,58.26
2018-07-19T05:35:48.116Z,58.75
2018-07-19T05:38:16.348Z,58.41
2018-07-19T05:40:44.479Z,57.56
2018-07-19T05:43:12.559Z,57.66
2018-07-19T05:45:40.632Z,56.97
2018-07-19T05:48:08.734Z,57.09
2018-07-19T05:50:37.180Z,57.43
2018-07-19T05:53:05.294Z,56.05
2018-07-19T05:55:33.400Z,56.26
2018-07-19T05:58:01.460Z,55.42
2018-07-19T06:00:29.546Z,55.06
2018-07-19T06:02:57.604Z,54.74
2018-07-19T06:05:25.691Z,54.49
2018-07-19T06:07:53.781Z,54.39
2018-07-19T06:10:21.860Z,53.85
2018-07-19T06:12:49.952Z,53.81
2018-07-19T06:15:18.036Z,54.30
2018-07-19T06:17:46.111Z,53.78
2018-07-19T06:20:14.192Z,53.53
2018-07-19T06:22:42.275Z,53.70
2018-07-19T06:25:10.555Z,53.64
2018-07-19T06:27:38.637Z,53.71
2018-07-19T06:30:07.199Z,53.54
2018-07-19T06:32:35.298Z,53.86
2018-07-19T06:35:03.468Z,53.34
2018-07-19T06:37:31.531Z,53.08
2018-07-19T06:39:59.609Z,53.01
2018-07-19T06:42:27.699Z,53.51
2018-07-19T06:44:55.783Z,52.85
2018-07-19T06:47:23.856Z,52.76
2018-07-19T06:49:51.923Z,51.99
2018-07-19T06:52:19.987Z,51.50
2018-07-19T06:54:48.039Z,51.45
2018-07-19T06:57:16.127Z,51.39
2018-07-19T06:59:44.187Z,51.35
2018-07-19T07:02:12.371Z,50.91
2018-07-19T07:04:40.463Z,50.95
2018-07-19T07:07:08.677Z,51.19
2018-07-19T07:09:36.759Z,50.99
2018-07-19T07:12:04.847Z,50.66
2018-07-19T07:14:32.923Z,50.29
2018-07-19T07:17:01.040Z,50.09
2018-07-19T07:19:29.103Z,50.09
2018-07-19T07:21:57.192Z,49.38
2018-07-19T07:24:25.298Z,48.45
2018-07-19T07:26:53.422Z,48.38
2018-07-19T07:29:21.514Z,48.28
2018-07-19T07:31:49.587Z,47.42
2018-07-19T07:34:17.743Z,47.39
2018-07-19T07:36:45.826Z,47.43
2018-07-19T07:39:13.879Z,47.64
2018-07-19T07:41:41.964Z,46.80
2018-07-19T07:44:10.026Z,46.97
2018-07-19T07:46:38.141Z,47.37
2018-07-19T07:49:06.243Z,47.55
2018-07-19T07:51:34.398Z,47.57
2018-07-19T07:54:02.546Z,46.32
2018-07-19T07:56:30.663Z,46.56
2018-07-19T07:58:58.808Z,46.42
2018-07-19T08:01:26.901Z,45.97
2018-07-19T08:03:54.991Z,45.68
2018-07-19T08:06:23.079Z,45.28
2018-07-19T08:08:51.246Z,45.45
2018-07-19T08:11:19.242Z,45.03
2018-07-19T08:13:47.311Z,44.34
2018-07-19T08:16:15.420Z,44.67
2018-07-19T08:18:43.513Z,44.06
2018-07-19T08:21:11.623Z,43.97
2018-07-19T08:23:42.748Z,43.31
2018-07-19T08:26:10.836Z,43.41
2018-07-19T08:28:38.903Z,43.59
2018-07-19T08:31:06.995Z,43.33
2018-07-19T08:33:35.085Z,42.97
2018-07-19T08:36:03.341Z,42.56
2018-07-19T08:38:31.431Z,42.51
2018-07-19T08:40:59.504Z,43.38
2018-07-19T08:43:27.708Z,42.65
2018-07-19T08:45:55.921Z,42.61
2018-07-19T08:48:24.175Z,42.33
2018-07-19T08:50:52.364Z,41.46
2018-07-19T08:53:20.553Z,41.79
2018-07-19T08:55:48.720Z,42.24
2018-07-19T08:58:16.887Z,41.70
2018-07-19T09:00:44.987Z,41.54
2018-07-19T09:03:13.478Z,40.91
2018-07-19T09:05:41.685Z,40.58
2018-07-19T09:08:09.945Z,41.37
2018-07-19T09:10:38.150Z,40.82
2018-07-19T09:13:06.586Z,40.77
2018-07-19T09:15:36.167Z,40.49
2018-07-19T09:18:04.438Z,40.48
2018-07-19T09:20:32.643Z,41.09
2018-07-19T09:23:00.893Z,40.32
2018-07-19T09:25:29.082Z,40.25
2018-07-19T09:27:57.341Z,40.53
2018-07-19T09:30:25.635Z,40.13
2018-07-19T09:32:53.876Z,39.86
2018-07-19T09:35:22.097Z,39.77
2018-07-19T09:37:50.292Z,40.26
2018-07-19T09:40:18.428Z,40.41
2018-07-19T09:42:46.689Z,39.90
2018-07-19T09:45:14.764Z,39.13
2018-07-19T09:47:42.862Z,39.52
2018-07-19T09:50:11.762Z,39.34
2018-07-19T09:52:39.891Z,39.28
2018-07-19T09:55:07.972Z,39.35
2018-07-19T09:57:36.043Z,39.66
2018-07-19T10:00:04.546Z,40.31
2018-07-19T10:02:32.659Z,40.28
2018-07-19T10:05:02.399Z,39.78
2018-07-19T10:07:30.709Z,39.49
2018-07-19T10:10:00.369Z,38.59
2018-07-19T10:12:28.619Z,39.80
2018-07-19T10:14:58.832Z,38.65
2018-07-19T10:17:27.066Z,38.09
2018-07-19T10:19:56.470Z,38.14
2018-07-19T10:22:24.565Z,37.97
2018-07-19T10:24:52.684Z,38.47
2018-07-19T10:27:20.913Z,39.41
2018-07-19T10:29:49.096Z,39.98
2018-07-19T10:32:17.409Z,39.06
2018-07-19T10:37:28.946Z,38.08
2018-07-19T10:39:57.141Z,38.49
2018-07-19T10:42:25.390Z,38.99
2018-07-19T10:44:54.268Z,38.42
2018-07-19T10:47:22.484Z,38.20
2018-07-19T10:49:50.626Z,36.93
2018-07-19T10:52:18.760Z,36.81
2018-07-19T10:54:47.724Z,37.99
2018-07-19T10:57:16.762Z,38.34
2018-07-19T10:59:45.568Z,37.61
2018-07-19T11:02:13.848Z,37.66
2018-07-19T11:04:42.367Z,37.53
2018-07-19T11:07:10.743Z,37.02
2018-07-19T11:09:38.971Z,37.43
2018-07-19T11:12:08.637Z,35.49
2018-07-19T11:14:36.983Z,36.87
2018-07-19T11:17:05.217Z,36.40
2018-07-19T11:19:33.429Z,36.97
2018-07-19T11:22:02.396Z,36.89
2018-07-19T11:24:30.604Z,36.52
2018-07-19T11:26:58.911Z,35.25
2018-07-19T11:29:27.164Z,35.38
2018-07-19T11:31:55.324Z,35.11
2018-07-19T11:34:23.399Z,37.37
2018-07-19T11:36:51.527Z,36.25
2018-07-19T11:39:19.623Z,36.14
2018-07-19T11:41:47.715Z,34.42
2018-07-19T11:44:15.864Z,34.71
2018-07-19T11:46:45.343Z,35.37
2018-07-19T11:49:13.460Z,34.61
2018-07-19T11:51:41.536Z,35.57
2018-07-19T11:54:11.000Z,33.84
2018-07-19T11:56:39.367Z,34.07
2018-07-19T11:59:07.559Z,34.35
2018-07-19T12:01:36.714Z,35.43
2018-07-19T12:04:05.013Z,35.28
2018-07-19T12:06:33.207Z,33.80
2018-07-19T12:09:01.412Z,33.82
2018-07-19T12:11:29.639Z,34.40
2018-07-19T12:13:57.697Z,32.51
2018-07-19T12:16:25.944Z,33.20
2018-07-19T12:18:54.104Z,32.61
2018-07-19T12:21:22.198Z,32.65
2018-07-19T12:23:50.331Z,33.44
2018-07-19T12:26:18.476Z,33.80
2018-07-19T12:28:46.577Z,34.61
2018-07-19T12:31:14.683Z,34.31
2018-07-19T12:33:42.747Z,34.21
2018-07-19T12:36:10.828Z,33.32
2018-07-19T12:38:38.950Z,33.83
2018-07-19T12:41:07.235Z,33.04
2018-07-19T12:43:35.419Z,33.34
2018-07-19T12:46:03.571Z,33.68
2018-07-19T12:48:32.557Z,32.84
2018-07-19T12:51:00.644Z,33.04
2018-07-19T12:53:28.711Z,32.26
2018-07-19T12:55:56.795Z,32.83
2018-07-19T12:58:24.873Z,33.50
2018-07-19T13:00:52.945Z,32.88
2018-07-19T13:03:21.320Z,31.52
2018-07-19T13:05:49.503Z,32.01
2018-07-19T13:08:17.760Z,30.95
2018-07-19T13:10:49.920Z,31.94
2018-07-19T13:13:18.135Z,32.50
2018-07-19T13:15:48.239Z,31.35
2018-07-19T13:18:16.444Z,32.15
2018-07-19T13:20:44.683Z,31.68
2018-07-19T13:23:13.460Z,31.15
2018-07-19T13:25:41.815Z,31.63
2018-07-19T13:28:10.004Z,32.87
2018-07-19T13:30:38.198Z,31.56
2018-07-19T13:33:06.381Z,31.13
2018-07-19T13:35:34.579Z,30.62
2018-07-19T13:38:02.776Z,31.07
2018-07-19T13:40:30.973Z,31.67
2018-07-19T13:42:59.167Z,32.03
2018-07-19T13:45:27.368Z,30.68
2018-07-19T13:47:55.558Z,31.01
2018-07-19T13:50:23.783Z,31.68
2018-07-19T13:53:03.185Z,31.40
2018-07-19T13:55:31.376Z,30.20
2018-07-19T13:57:59.814Z,31.25
2018-07-19T14:00:28.020Z,30.67
2018-07-19T14:02:56.200Z,30.42
2018-07-19T14:05:24.400Z,30.80
2018-07-19T14:07:52.583Z,30.01
2018-07-19T14:10:20.799Z,30.35
2018-07-19T14:12:49.222Z,29.96
2018-07-19T14:15:17.487Z,31.37
2018-07-19T14:17:45.766Z,30.60
2018-07-19T14:20:13.839Z,31.00
2018-07-19T14:22:41.912Z,30.43
2018-07-19T14:25:09.986Z,30.38
2018-07-19T14:27:38.134Z,29.59
2018-07-19T14:30:06.563Z,29.58
2018-07-19T14:32:34.634Z,29.97
2018-07-19T14:35:02.749Z,30.18
2018-07-19T14:37:30.781Z,29.50
2018-07-19T14:39:58.851Z,30.20
2018-07-19T14:42:27.053Z,30.38
2018-07-19T14:44:55.485Z,29.26
2018-07-19T14:47:23.805Z,29.71
2018-07-19T14:49:52.122Z,29.44
2018-07-19T14:52:20.260Z,30.31
2018-07-19T14:54:48.340Z,30.07
2018-07-19T14:57:16.454Z,29.73
2018-07-19T14:59:44.540Z,30.04
2018-07-19T15:02:14.503Z,29.49
2018-07-19T15:04:42.744Z,30.44
2018-07-19T15:07:10.954Z,30.15
2018-07-19T15:09:39.154Z,30.26
2018-07-19T15:12:07.677Z,29.10
2018-07-19T15:14:35.788Z,28.92
2018-07-19T15:17:04.030Z,28.57
2018-07-19T15:19:32.252Z,29.80
2018-07-19T15:22:00.576Z,29.66
2018-07-19T15:24:28.729Z,29.85
2018-07-19T15:26:56.839Z,28.77
2018-07-19T15:29:24.920Z,28.34
2018-07-19T15:31:52.983Z,29.13
2018-07-19T15:34:21.225Z,29.19
2018-07-19T15:36:49.259Z,28.12
2018-07-19T15:39:17.334Z,28.44
2018-07-19T15:41:45.562Z,29.14
2018-07-19T15:44:13.627Z,29.58
2018-07-19T15:46:41.709Z,29.80
2018-07-19T15:49:09.803Z,28.23
2018-07-19T15:51:37.901Z,28.32
2018-07-19T15:54:05.973Z,29.05
2018-07-19T15:56:34.242Z,28.06
2018-07-19T15:59:02.298Z,28.94
2018-07-19T16:01:30.419Z,28.00
2018-07-19T16:03:58.456Z,28.43
2018-07-19T16:06:26.535Z,27.28
2018-07-19T16:08:54.608Z,28.27
2018-07-19T16:11:22.702Z,27.91
2018-07-19T16:13:50.822Z,27.75
2018-07-19T16:16:19.066Z,28.54
2018-07-19T16:18:47.133Z,28.45
2018-07-19T16:21:15.192Z,28.26
2018-07-19T16:23:43.263Z,28.76
2018-07-19T16:26:11.410Z,27.47
2018-07-19T16:28:39.695Z,27.64
2018-07-19T16:31:07.939Z,27.35
2018-07-19T16:33:36.161Z,28.57
2018-07-19T16:36:04.355Z,27.92
2018-07-19T16:38:32.423Z,27.48
2018-07-19T16:41:01.131Z,28.03
2018-07-19T16:43:29.202Z,27.82
2018-07-19T16:45:57.284Z,27.68
2018-07-19T16:48:25.426Z,28.05
2018-07-19T16:50:53.539Z,26.16
2018-07-19T16:53:21.603Z,27.65
2018-07-19T16:55:49.683Z,27.18
2018-07-19T16:58:19.287Z,27.18
2018-07-19T17:00:47.356Z,26.78
2018-07-19T17:03:15.439Z,27.30
2018-07-19T17:05:43.523Z,26.69
2018-07-19T17:08:11.585Z,26.67
2018-07-19T17:10:39.638Z,26.92
2018-07-19T17:13:07.928Z,26.21
2018-07-19T17:15:35.993Z,26.21
2018-07-19T17:18:04.111Z,25.85
2018-07-19T17:20:35.153Z,25.63
2018-07-19T17:23:05.712Z,25.62
2018-07-19T17:25:34.247Z,24.65
2018-07-19T17:28:03.880Z,24.76
2018-07-19T17:30:32.281Z,25.08
2018-07-19T17:33:00.491Z,25.60
2018-07-19T17:35:28.763Z,24.60
2018-07-19T17:37:57.945Z,25.83
2018-07-19T17:40:26.846Z,24.87
2018-07-19T17:42:54.962Z,24.09
2018-07-19T17:45:23.114Z,24.47
2018-07-19T17:47:51.201Z,24.30
2018-07-19T17:50:19.282Z,24.08
2018-07-19T17:52:47.385Z,24.68
2018-07-19T17:55:16.118Z,25.43
2018-07-19T17:57:44.392Z,25.08
2018-07-19T18:00:12.499Z,25.06
2018-07-19T18:02:40.618Z,25.74
2018-07-19T18:05:08.690Z,25.32
2018-07-19T18:07:36.759Z,26.22
2018-07-19T18:10:05.194Z,26.91
2018-07-19T18:12:33.368Z,27.18
2018-07-19T18:15:01.488Z,27.13
2018-07-19T18:17:29.610Z,27.76
2018-07-19T18:19:57.730Z,27.83
2018-07-19T18:22:25.827Z,27.42
2018-07-19T18:24:53.875Z,27.04
2018-07-19T18:27:22.504Z,27.83
2018-07-19T18:29:50.581Z,27.36
2018-07-19T18:32:19.046Z,27.32
2018-07-19T18:34:47.251Z,28.04
2018-07-19T18:37:15.330Z,27.71
2018-07-19T18:39:43.615Z,28.45
2018-07-19T18:42:11.690Z,28.63
2018-07-19T18:44:39.820Z,28.39
2018-07-19T18:47:08.020Z,28.45
2018-07-19T18:49:36.235Z,28.00
2018-07-19T18:52:04.788Z,28.49
2018-07-19T18:54:34.961Z,29.48
2018-07-19T18:57:03.014Z,29.88
2018-07-19T18:59:32.212Z,30.23
2018-07-19T19:02:01.534Z,30.62
2018-07-19T19:04:30.389Z,30.28
2018-07-19T19:06:58.486Z,31.43
2018-07-19T19:09:26.563Z,32.25
2018-07-19T19:11:54.796Z,30.67
2018-07-19T19:14:22.916Z,30.77
2018-07-19T19:16:52.934Z,34.40
2018-07-19T19:19:21.029Z,35.42
2018-07-19T19:21:49.182Z,37.27
2018-07-19T19:24:17.258Z,37.87
2018-07-19T19:26:45.376Z,38.68
2018-07-19T19:29:13.549Z,42.81
2018-07-19T19:31:42.652Z,41.07
2018-07-19T19:34:12.361Z,41.90
2018-07-19T19:36:45.291Z,43.00
2018-07-19T19:39:13.812Z,41.59
2018-07-19T19:41:43.776Z,42.03
2018-07-19T19:44:12.454Z,42.25
2018-07-19T19:46:40.513Z,43.26
2018-07-19T19:49:08.599Z,42.66
2018-07-19T19:51:36.695Z,43.99
2018-07-19T19:54:04.807Z,45.11
2018-07-19T19:56:32.880Z,43.79
2018-07-19T19:59:00.959Z,45.27
2018-07-19T20:01:29.047Z,46.31
2018-07-19T20:03:57.183Z,44.63
2018-07-19T20:06:25.263Z,46.60
2018-07-19T20:08:53.368Z,46.82
2018-07-19T20:11:21.489Z,46.08
2018-07-19T20:13:49.516Z,46.52
2018-07-19T20:16:17.570Z,47.19
2018-07-19T20:18:45.673Z,46.76
2018-07-19T20:21:13.769Z,46.45
2018-07-19T20:23:41.837Z,47.76
2018-07-19T20:26:09.926Z,47.24
2018-07-19T20:28:38.031Z,47.40
2018-07-19T20:31:06.075Z,47.87
2018-07-19T20:33:34.191Z,47.97
2018-07-19T20:36:02.242Z,48.55
2018-07-19T20:38:30.314Z,48.64
2018-07-19T20:40:58.403Z,48.42
2018-07-19T20:43:26.571Z,48.57
2018-07-19T20:45:54.611Z,49.25
2018-07-19T20:48:22.678Z,49.20
2018-07-19T20:50:50.974Z,49.56
2018-07-19T20:53:19.074Z,49.74
2018-07-19T20:55:47.172Z,51.12
2018-07-19T20:58:15.252Z,51.14
2018-07-19T21:00:43.339Z,51.33
2018-07-19T21:03:11.428Z,51.47
2018-07-19T21:05:39.528Z,52.25
2018-07-19T21:08:07.640Z,52.03
2018-07-19T21:10:35.733Z,51.74
2018-07-19T21:13:03.847Z,51.94
2018-07-19T21:15:31.935Z,52.92
2018-07-19T21:18:00.079Z,54.05
2018-07-19T21:20:28.178Z,54.72
2018-07-19T21:22:56.270Z,54.60
2018-07-19T21:25:24.336Z,55.42
2018-07-19T21:27:52.404Z,55.66
2018-07-19T21:30:20.481Z,56.39
2018-07-19T21:32:48.575Z,56.17
2018-07-19T21:35:16.634Z,55.63
2018-07-19T21:37:44.749Z,55.11
2018-07-19T21:40:12.971Z,56.15
2018-07-19T21:42:41.341Z,56.15
2018-07-19T21:45:09.535Z,56.17
2018-07-19T21:47:37.740Z,55.05
2018-07-19T21:50:06.091Z,57.35
2018-07-19T21:52:34.292Z,57.03
2018-07-19T21:55:02.476Z,57.56
2018-07-19T21:57:30.671Z,57.77
2018-07-19T21:59:58.865Z,57.66
2018-07-19T22:02:27.068Z,58.17
2018-07-19T22:04:55.303Z,58.62
2018-07-19T22:07:23.455Z,59.12
2018-07-19T22:09:51.543Z,59.06
2018-07-19T22:12:19.612Z,59.38
2018-07-19T22:14:47.728Z,59.31
2018-07-19T22:17:15.795Z,59.14
2018-07-19T22:19:43.880Z,59.25
2018-07-19T22:22:11.940Z,60.30
2018-07-19T22:24:40.008Z,60.18
2018-07-19T22:27:08.079Z,60.52
2018-07-19T22:29:36.151Z,60.61
2018-07-19T22:32:04.239Z,60.39
2018-07-19T22:34:32.320Z,59.95
2018-07-19T22:37:00.393Z,60.48
2018-07-19T22:39:28.486Z,61.20
2018-07-19T22:41:56.638Z,61.96
2018-07-19T22:44:24.757Z,61.81
2018-07-19T22:46:52.919Z,61.47
2018-07-19T22:49:21.047Z,61.82
2018-07-19T22:51:49.155Z,62.83
2018-07-19T22:54:17.259Z,63.04
2018-07-19T22:56:46.162Z,63.48
2018-07-19T22:59:14.252Z,63.32
2018-07-19T23:01:42.331Z,62.94
2018-07-19T23:04:10.416Z,62.91
2018-07-19T23:06:38.579Z,63.25
2018-07-19T23:09:07.728Z,63.36
2018-07-19T23:11:35.858Z,63.78
2018-07-19T23:14:03.936Z,64.60
2018-07-19T23:16:32.012Z,64.39
2018-07-19T23:19:00.088Z,64.31
2018-07-19T23:21:28.161Z,63.79
2018-07-19T23:23:56.277Z,63.88
2018-07-19T23:26:24.724Z,63.75
2018-07-19T23:28:52.813Z,64.10
2018-07-19T23:31:20.880Z,64.44
2018-07-19T23:33:48.992Z,64.42
2018-07-19T23:36:21.144Z,65.08
2018-07-19T23:38:55.018Z,65.39
2018-07-19T23:41:30.115Z,65.58
2018-07-19T23:44:01.789Z,65.41
2018-07-19T23:46:33.885Z,64.37
2018-07-19T23:49:05.917Z,60.33
2018-07-19T23:51:34.408Z,59.75
2018-07-19T23:54:02.528Z,57.08
2018-07-19T23:56:30.585Z,56.40
2018-07-19T23:58:58.680Z,55.84
